sensor_id;sensor_type;location;lat;lon;timestamp;P1;durP1;ratioP1;P2;durP2;ratioP2
74100;SDS011;62462;52.530;21.682;2022-10-31T00:00:31;27.60;;;14.13;;
74100;SDS011;62462;52.530;21.682;2022-10-31T00:02:57;32.72;;;15.20;;
74100;SDS011;62462;52.530;21.682;2022-10-31T00:05:23;28.88;;;14.57;;
74100;SDS011;62462;52.530;21.682;2022-10-31T00:07:51;28.65;;;14.35;;
74100;SDS011;62462;52.530;21.682;2022-10-31T00:10:17;26.73;;;15.23;;
74100;SDS011;62462;52.530;21.682;2022-10-31T00:12:43;30.10;;;15.18;;
74100;SDS011;62462;52.530;21.682;2022-10-31T00:15:09;31.75;;;14.20;;
74100;SDS011;62462;52.530;21.682;2022-10-31T00:17:36;28.30;;;14.88;;
74100;SDS011;62462;52.530;21.682;2022-10-31T00:20:02;31.67;;;15.57;;
74100;SDS011;62462;52.530;21.682;2022-10-31T00:22:29;30.25;;;15.13;;
74100;SDS011;62462;52.530;21.682;2022-10-31T00:24:54;25.55;;;13.35;;
74100;SDS011;62462;52.530;21.682;2022-10-31T00:27:20;21.00;;;12.77;;
74100;SDS011;62462;52.530;21.682;2022-10-31T00:29:46;26.00;;;14.75;;
74100;SDS011;62462;52.530;21.682;2022-10-31T00:32:11;26.63;;;15.13;;
74100;SDS011;62462;52.530;21.682;2022-10-31T00:34:37;24.00;;;14.45;;
74100;SDS011;62462;52.530;21.682;2022-10-31T00:37:03;26.40;;;14.57;;
74100;SDS011;62462;52.530;21.682;2022-10-31T00:39:28;26.17;;;14.60;;
74100;SDS011;62462;52.530;21.682;2022-10-31T00:41:54;25.02;;;13.90;;
74100;SDS011;62462;52.530;21.682;2022-10-31T00:44:20;23.85;;;13.05;;
74100;SDS011;62462;52.530;21.682;2022-10-31T00:46:45;25.35;;;14.63;;
74100;SDS011;62462;52.530;21.682;2022-10-31T00:49:11;32.22;;;15.95;;
74100;SDS011;62462;52.530;21.682;2022-10-31T00:51:37;28.35;;;16.20;;
74100;SDS011;62462;52.530;21.682;2022-10-31T00:54:03;31.20;;;16.08;;
74100;SDS011;62462;52.530;21.682;2022-10-31T00:56:29;29.23;;;15.80;;
74100;SDS011;62462;52.530;21.682;2022-10-31T00:58:55;37.80;;;18.95;;
74100;SDS011;62462;52.530;21.682;2022-10-31T01:01:20;34.03;;;17.50;;
74100;SDS011;62462;52.530;21.682;2022-10-31T01:03:46;35.25;;;17.48;;
74100;SDS011;62462;52.530;21.682;2022-10-31T01:06:12;32.33;;;17.50;;
74100;SDS011;62462;52.530;21.682;2022-10-31T01:08:39;34.42;;;19.00;;
74100;SDS011;62462;52.530;21.682;2022-10-31T01:13:41;32.50;;;16.95;;
74100;SDS011;62462;52.530;21.682;2022-10-31T01:16:08;38.50;;;18.38;;
74100;SDS011;62462;52.530;21.682;2022-10-31T01:18:36;43.83;;;18.98;;
74100;SDS011;62462;52.530;21.682;2022-10-31T01:21:20;33.42;;;16.55;;
74100;SDS011;62462;52.530;21.682;2022-10-31T01:23:48;46.33;;;18.40;;
74100;SDS011;62462;52.530;21.682;2022-10-31T01:26:15;42.83;;;20.30;;
74100;SDS011;62462;52.530;21.682;2022-10-31T01:28:47;48.63;;;20.67;;
74100;SDS011;62462;52.530;21.682;2022-10-31T01:31:15;48.45;;;22.75;;
74100;SDS011;62462;52.530;21.682;2022-10-31T01:33:44;54.22;;;24.33;;
74100;SDS011;62462;52.530;21.682;2022-10-31T01:36:10;52.03;;;26.00;;
74100;SDS011;62462;52.530;21.682;2022-10-31T01:38:41;55.50;;;26.92;;
74100;SDS011;62462;52.530;21.682;2022-10-31T01:41:08;55.70;;;26.40;;
74100;SDS011;62462;52.530;21.682;2022-10-31T01:43:42;58.40;;;27.63;;
74100;SDS011;62462;52.530;21.682;2022-10-31T01:46:15;61.42;;;28.00;;
74100;SDS011;62462;52.530;21.682;2022-10-31T01:48:48;53.67;;;25.58;;
74100;SDS011;62462;52.530;21.682;2022-10-31T01:51:14;58.72;;;26.65;;
74100;SDS011;62462;52.530;21.682;2022-10-31T01:53:42;59.28;;;27.70;;
74100;SDS011;62462;52.530;21.682;2022-10-31T01:56:09;56.75;;;27.77;;
74100;SDS011;62462;52.530;21.682;2022-10-31T01:58:36;52.38;;;26.30;;
74100;SDS011;62462;52.530;21.682;2022-10-31T02:01:02;60.63;;;27.27;;
74100;SDS011;62462;52.530;21.682;2022-10-31T02:03:30;58.20;;;27.40;;
74100;SDS011;62462;52.530;21.682;2022-10-31T02:05:56;61.13;;;28.23;;
74100;SDS011;62462;52.530;21.682;2022-10-31T02:08:26;64.72;;;27.75;;
74100;SDS011;62462;52.530;21.682;2022-10-31T02:10:53;61.97;;;27.63;;
74100;SDS011;62462;52.530;21.682;2022-10-31T02:13:20;51.40;;;25.65;;
74100;SDS011;62462;52.530;21.682;2022-10-31T02:15:49;58.70;;;26.05;;
74100;SDS011;62462;52.530;21.682;2022-10-31T02:18:18;47.72;;;23.35;;
74100;SDS011;62462;52.530;21.682;2022-10-31T02:26:26;50.20;;;24.27;;
74100;SDS011;62462;52.530;21.682;2022-10-31T02:34:22;45.65;;;22.98;;
74100;SDS011;62462;52.530;21.682;2022-10-31T02:44:28;37.88;;;19.75;;
74100;SDS011;62462;52.530;21.682;2022-10-31T02:47:14;36.83;;;19.30;;
74100;SDS011;62462;52.530;21.682;2022-10-31T02:50:26;36.20;;;19.40;;
74100;SDS011;62462;52.530;21.682;2022-10-31T02:52:33;38.67;;;21.27;;
74100;SDS011;62462;52.530;21.682;2022-10-31T02:55:40;37.97;;;19.30;;
74100;SDS011;62462;52.530;21.682;2022-10-31T02:58:08;39.20;;;20.33;;
74100;SDS011;62462;52.530;21.682;2022-10-31T03:03:28;38.15;;;19.33;;
74100;SDS011;62462;52.530;21.682;2022-10-31T03:08:52;38.92;;;18.60;;
74100;SDS011;62462;52.530;21.682;2022-10-31T03:12:04;38.05;;;18.70;;
74100;SDS011;62462;52.530;21.682;2022-10-31T03:14:36;39.47;;;18.33;;
74100;SDS011;62462;52.530;21.682;2022-10-31T03:20:12;34.95;;;18.75;;
74100;SDS011;62462;52.530;21.682;2022-10-31T03:22:40;31.67;;;17.48;;
74100;SDS011;62462;52.530;21.682;2022-10-31T03:25:08;36.20;;;17.88;;
74100;SDS011;62462;52.530;21.682;2022-10-31T03:27:37;32.47;;;16.77;;
74100;SDS011;62462;52.530;21.682;2022-10-31T03:30:06;35.58;;;17.60;;
74100;SDS011;62462;52.530;21.682;2022-10-31T03:32:38;34.92;;;17.52;;
74100;SDS011;62462;52.530;21.682;2022-10-31T03:35:08;29.05;;;15.70;;
74100;SDS011;62462;52.530;21.682;2022-10-31T03:37:38;34.78;;;17.55;;
74100;SDS011;62462;52.530;21.682;2022-10-31T03:40:06;30.58;;;15.95;;
74100;SDS011;62462;52.530;21.682;2022-10-31T03:42:34;36.17;;;16.20;;
74100;SDS011;62462;52.530;21.682;2022-10-31T03:45:10;32.40;;;16.42;;
74100;SDS011;62462;52.530;21.682;2022-10-31T03:47:43;32.13;;;16.48;;
74100;SDS011;62462;52.530;21.682;2022-10-31T03:50:09;36.30;;;17.70;;
74100;SDS011;62462;52.530;21.682;2022-10-31T03:53:12;31.80;;;16.52;;
74100;SDS011;62462;52.530;21.682;2022-10-31T03:55:39;37.85;;;18.08;;
74100;SDS011;62462;52.530;21.682;2022-10-31T03:58:27;40.85;;;19.50;;
74100;SDS011;62462;52.530;21.682;2022-10-31T04:00:58;38.05;;;18.60;;
74100;SDS011;62462;52.530;21.682;2022-10-31T04:03:28;37.33;;;19.17;;
74100;SDS011;62462;52.530;21.682;2022-10-31T04:05:58;41.97;;;20.05;;
74100;SDS011;62462;52.530;21.682;2022-10-31T04:08:29;42.50;;;21.88;;
74100;SDS011;62462;52.530;21.682;2022-10-31T04:10:57;41.38;;;21.67;;
74100;SDS011;62462;52.530;21.682;2022-10-31T04:13:26;36.88;;;18.50;;
74100;SDS011;62462;52.530;21.682;2022-10-31T04:15:55;36.30;;;18.13;;
74100;SDS011;62462;52.530;21.682;2022-10-31T04:18:24;35.97;;;18.58;;
74100;SDS011;62462;52.530;21.682;2022-10-31T04:20:58;39.35;;;19.20;;
74100;SDS011;62462;52.530;21.682;2022-10-31T04:23:26;45.30;;;21.63;;
74100;SDS011;62462;52.530;21.682;2022-10-31T04:25:52;42.97;;;20.73;;
74100;SDS011;62462;52.530;21.682;2022-10-31T04:28:18;41.33;;;20.48;;
74100;SDS011;62462;52.530;21.682;2022-10-31T04:30:44;44.88;;;21.20;;
74100;SDS011;62462;52.530;21.682;2022-10-31T04:33:10;42.65;;;21.33;;
74100;SDS011;62462;52.530;21.682;2022-10-31T04:35:35;38.67;;;20.85;;
74100;SDS011;62462;52.530;21.682;2022-10-31T04:38:01;43.95;;;21.27;;
74100;SDS011;62462;52.530;21.682;2022-10-31T04:40:28;43.70;;;21.10;;
74100;SDS011;62462;52.530;21.682;2022-10-31T04:42:54;40.97;;;20.52;;
74100;SDS011;62462;52.530;21.682;2022-10-31T04:45:20;41.85;;;20.75;;
74100;SDS011;62462;52.530;21.682;2022-10-31T04:47:46;41.80;;;21.15;;
74100;SDS011;62462;52.530;21.682;2022-10-31T04:50:12;36.55;;;20.60;;
74100;SDS011;62462;52.530;21.682;2022-10-31T04:52:38;38.25;;;19.80;;
74100;SDS011;62462;52.530;21.682;2022-10-31T04:55:05;34.28;;;18.75;;
74100;SDS011;62462;52.530;21.682;2022-10-31T04:57:31;29.23;;;16.73;;
74100;SDS011;62462;52.530;21.682;2022-10-31T04:59:56;30.17;;;16.77;;
74100;SDS011;62462;52.530;21.682;2022-10-31T05:02:23;28.92;;;15.85;;
74100;SDS011;62462;52.530;21.682;2022-10-31T05:04:49;27.73;;;15.98;;
74100;SDS011;62462;52.530;21.682;2022-10-31T05:07:15;26.10;;;15.88;;
74100;SDS011;62462;52.530;21.682;2022-10-31T05:09:40;31.23;;;17.17;;
74100;SDS011;62462;52.530;21.682;2022-10-31T05:12:06;29.58;;;16.30;;
74100;SDS011;62462;52.530;21.682;2022-10-31T05:14:32;28.83;;;16.02;;
74100;SDS011;62462;52.530;21.682;2022-10-31T05:16:57;30.23;;;16.40;;
74100;SDS011;62462;52.530;21.682;2022-10-31T05:19:23;32.42;;;17.80;;
74100;SDS011;62462;52.530;21.682;2022-10-31T05:21:49;31.95;;;17.27;;
74100;SDS011;62462;52.530;21.682;2022-10-31T05:24:14;29.48;;;16.63;;
74100;SDS011;62462;52.530;21.682;2022-10-31T05:26:40;28.45;;;16.52;;
74100;SDS011;62462;52.530;21.682;2022-10-31T05:29:06;28.95;;;15.73;;
74100;SDS011;62462;52.530;21.682;2022-10-31T05:31:31;27.05;;;16.10;;
74100;SDS011;62462;52.530;21.682;2022-10-31T05:33:57;32.22;;;15.85;;
74100;SDS011;62462;52.530;21.682;2022-10-31T05:36:23;29.10;;;17.33;;
74100;SDS011;62462;52.530;21.682;2022-10-31T05:38:49;30.02;;;17.25;;
74100;SDS011;62462;52.530;21.682;2022-10-31T05:41:15;32.90;;;18.67;;
74100;SDS011;62462;52.530;21.682;2022-10-31T05:43:40;36.92;;;18.33;;
74100;SDS011;62462;52.530;21.682;2022-10-31T05:46:06;34.10;;;17.88;;
74100;SDS011;62462;52.530;21.682;2022-10-31T05:48:32;35.35;;;18.17;;
74100;SDS011;62462;52.530;21.682;2022-10-31T05:50:58;33.58;;;18.35;;
74100;SDS011;62462;52.530;21.682;2022-10-31T05:53:23;37.63;;;18.27;;
74100;SDS011;62462;52.530;21.682;2022-10-31T05:55:49;34.22;;;18.00;;
74100;SDS011;62462;52.530;21.682;2022-10-31T05:58:16;34.22;;;17.60;;
74100;SDS011;62462;52.530;21.682;2022-10-31T06:00:41;35.70;;;18.42;;
74100;SDS011;62462;52.530;21.682;2022-10-31T06:03:07;31.90;;;17.65;;
74100;SDS011;62462;52.530;21.682;2022-10-31T06:05:34;35.15;;;17.38;;
74100;SDS011;62462;52.530;21.682;2022-10-31T06:08:00;31.50;;;17.02;;
74100;SDS011;62462;52.530;21.682;2022-10-31T06:10:26;30.77;;;15.27;;
74100;SDS011;62462;52.530;21.682;2022-10-31T06:12:52;29.05;;;14.82;;
74100;SDS011;62462;52.530;21.682;2022-10-31T06:15:18;29.23;;;16.33;;
74100;SDS011;62462;52.530;21.682;2022-10-31T06:17:43;22.23;;;13.40;;
74100;SDS011;62462;52.530;21.682;2022-10-31T06:20:10;23.70;;;12.98;;
74100;SDS011;62462;52.530;21.682;2022-10-31T06:22:36;22.70;;;12.30;;
74100;SDS011;62462;52.530;21.682;2022-10-31T06:25:01;24.48;;;13.10;;
74100;SDS011;62462;52.530;21.682;2022-10-31T06:27:28;23.98;;;12.50;;
74100;SDS011;62462;52.530;21.682;2022-10-31T06:29:54;27.05;;;12.70;;
74100;SDS011;62462;52.530;21.682;2022-10-31T06:32:20;32.45;;;13.82;;
74100;SDS011;62462;52.530;21.682;2022-10-31T06:34:46;32.55;;;13.25;;
74100;SDS011;62462;52.530;21.682;2022-10-31T06:37:13;32.78;;;13.45;;
74100;SDS011;62462;52.530;21.682;2022-10-31T06:39:39;28.65;;;12.30;;
74100;SDS011;62462;52.530;21.682;2022-10-31T06:42:05;26.10;;;12.45;;
74100;SDS011;62462;52.530;21.682;2022-10-31T06:44:31;24.42;;;12.63;;
74100;SDS011;62462;52.530;21.682;2022-10-31T06:46:57;30.33;;;14.40;;
74100;SDS011;62462;52.530;21.682;2022-10-31T06:49:23;27.88;;;13.73;;
74100;SDS011;62462;52.530;21.682;2022-10-31T06:51:49;28.63;;;14.40;;
74100;SDS011;62462;52.530;21.682;2022-10-31T06:54:15;22.95;;;12.75;;
74100;SDS011;62462;52.530;21.682;2022-10-31T06:56:41;25.42;;;13.15;;
74100;SDS011;62462;52.530;21.682;2022-10-31T06:59:08;26.50;;;12.73;;
74100;SDS011;62462;52.530;21.682;2022-10-31T07:01:34;24.73;;;13.50;;
74100;SDS011;62462;52.530;21.682;2022-10-31T07:04:00;26.67;;;14.27;;
74100;SDS011;62462;52.530;21.682;2022-10-31T07:06:25;22.13;;;13.00;;
74100;SDS011;62462;52.530;21.682;2022-10-31T07:08:51;23.50;;;12.88;;
74100;SDS011;62462;52.530;21.682;2022-10-31T07:11:17;21.77;;;11.45;;
74100;SDS011;62462;52.530;21.682;2022-10-31T07:13:42;19.73;;;11.88;;
74100;SDS011;62462;52.530;21.682;2022-10-31T07:16:08;19.98;;;11.38;;
74100;SDS011;62462;52.530;21.682;2022-10-31T07:18:38;18.98;;;11.55;;
74100;SDS011;62462;52.530;21.682;2022-10-31T07:21:04;30.95;;;17.15;;
74100;SDS011;62462;52.530;21.682;2022-10-31T07:23:30;28.40;;;15.27;;
74100;SDS011;62462;52.530;21.682;2022-10-31T07:25:57;25.77;;;11.55;;
74100;SDS011;62462;52.530;21.682;2022-10-31T07:28:24;16.98;;;10.60;;
74100;SDS011;62462;52.530;21.682;2022-10-31T07:30:51;14.55;;;10.05;;
74100;SDS011;62462;52.530;21.682;2022-10-31T07:33:18;17.02;;;11.15;;
74100;SDS011;62462;52.530;21.682;2022-10-31T07:35:46;16.98;;;9.57;;
74100;SDS011;62462;52.530;21.682;2022-10-31T07:38:13;17.27;;;10.23;;
74100;SDS011;62462;52.530;21.682;2022-10-31T07:40:40;16.08;;;10.57;;
74100;SDS011;62462;52.530;21.682;2022-10-31T07:43:07;14.63;;;10.30;;
74100;SDS011;62462;52.530;21.682;2022-10-31T07:45:33;12.95;;;8.40;;
74100;SDS011;62462;52.530;21.682;2022-10-31T07:47:59;13.38;;;8.93;;
74100;SDS011;62462;52.530;21.682;2022-10-31T07:50:26;12.68;;;8.18;;
74100;SDS011;62462;52.530;21.682;2022-10-31T07:53:03;12.07;;;8.52;;
74100;SDS011;62462;52.530;21.682;2022-10-31T07:55:31;11.32;;;7.93;;
74100;SDS011;62462;52.530;21.682;2022-10-31T07:57:58;11.63;;;7.78;;
74100;SDS011;62462;52.530;21.682;2022-10-31T08:00:25;14.48;;;8.75;;
74100;SDS011;62462;52.530;21.682;2022-10-31T08:03:04;13.10;;;8.25;;
74100;SDS011;62462;52.530;21.682;2022-10-31T08:05:30;11.70;;;7.70;;
74100;SDS011;62462;52.530;21.682;2022-10-31T08:07:57;10.07;;;7.10;;
74100;SDS011;62462;52.530;21.682;2022-10-31T08:10:23;10.77;;;7.70;;
74100;SDS011;62462;52.530;21.682;2022-10-31T08:13:06;14.30;;;8.25;;
74100;SDS011;62462;52.530;21.682;2022-10-31T08:15:32;12.27;;;7.97;;
74100;SDS011;62462;52.530;21.682;2022-10-31T08:18:02;10.27;;;7.63;;
74100;SDS011;62462;52.530;21.682;2022-10-31T08:20:28;11.30;;;7.57;;
74100;SDS011;62462;52.530;21.682;2022-10-31T08:22:55;11.98;;;8.55;;
74100;SDS011;62462;52.530;21.682;2022-10-31T08:25:28;17.05;;;10.60;;
74100;SDS011;62462;52.530;21.682;2022-10-31T08:27:55;12.82;;;8.32;;
74100;SDS011;62462;52.530;21.682;2022-10-31T08:30:22;10.85;;;8.65;;
74100;SDS011;62462;52.530;21.682;2022-10-31T08:35:33;16.87;;;11.07;;
74100;SDS011;62462;52.530;21.682;2022-10-31T08:37:59;17.55;;;11.65;;
74100;SDS011;62462;52.530;21.682;2022-10-31T08:40:27;15.10;;;9.52;;
74100;SDS011;62462;52.530;21.682;2022-10-31T08:45:32;12.57;;;8.45;;
74100;SDS011;62462;52.530;21.682;2022-10-31T08:48:06;14.15;;;8.23;;
74100;SDS011;62462;52.530;21.682;2022-10-31T08:50:35;12.60;;;7.85;;
74100;SDS011;62462;52.530;21.682;2022-10-31T08:53:02;12.65;;;8.43;;
74100;SDS011;62462;52.530;21.682;2022-10-31T08:55:35;12.68;;;8.52;;
74100;SDS011;62462;52.530;21.682;2022-10-31T08:58:03;14.38;;;8.82;;
74100;SDS011;62462;52.530;21.682;2022-10-31T09:00:30;16.05;;;8.73;;
74100;SDS011;62462;52.530;21.682;2022-10-31T09:02:57;17.25;;;9.35;;
74100;SDS011;62462;52.530;21.682;2022-10-31T09:05:25;13.25;;;8.82;;
74100;SDS011;62462;52.530;21.682;2022-10-31T09:07:51;14.45;;;9.63;;
74100;SDS011;62462;52.530;21.682;2022-10-31T09:10:21;12.15;;;8.00;;
74100;SDS011;62462;52.530;21.682;2022-10-31T09:12:58;12.65;;;8.45;;
74100;SDS011;62462;52.530;21.682;2022-10-31T09:15:25;13.65;;;9.07;;
74100;SDS011;62462;52.530;21.682;2022-10-31T09:17:52;14.73;;;8.73;;
74100;SDS011;62462;52.530;21.682;2022-10-31T09:20:18;12.68;;;8.35;;
74100;SDS011;62462;52.530;21.682;2022-10-31T09:22:44;13.00;;;8.07;;
74100;SDS011;62462;52.530;21.682;2022-10-31T09:25:09;12.00;;;8.07;;
74100;SDS011;62462;52.530;21.682;2022-10-31T09:27:36;13.30;;;7.68;;
74100;SDS011;62462;52.530;21.682;2022-10-31T09:30:02;12.68;;;7.70;;
74100;SDS011;62462;52.530;21.682;2022-10-31T09:32:29;14.73;;;7.93;;
74100;SDS011;62462;52.530;21.682;2022-10-31T09:34:54;12.77;;;7.78;;
74100;SDS011;62462;52.530;21.682;2022-10-31T09:37:20;15.35;;;8.50;;
74100;SDS011;62462;52.530;21.682;2022-10-31T09:39:47;12.77;;;8.07;;
74100;SDS011;62462;52.530;21.682;2022-10-31T09:48:29;14.95;;;8.95;;
74100;SDS011;62462;52.530;21.682;2022-10-31T09:50:48;14.95;;;8.93;;
74100;SDS011;62462;52.530;21.682;2022-10-31T09:53:32;13.93;;;9.07;;
74100;SDS011;62462;52.530;21.682;2022-10-31T09:56:13;11.25;;;7.82;;
74100;SDS011;62462;52.530;21.682;2022-10-31T09:58:43;13.57;;;8.88;;
74100;SDS011;62462;52.530;21.682;2022-10-31T10:01:24;15.50;;;8.13;;
74100;SDS011;62462;52.530;21.682;2022-10-31T10:04:09;11.13;;;7.63;;
74100;SDS011;62462;52.530;21.682;2022-10-31T10:06:49;11.55;;;6.88;;
74100;SDS011;62462;52.530;21.682;2022-10-31T10:09:19;15.70;;;9.15;;
74100;SDS011;62462;52.530;21.682;2022-10-31T10:25:28;12.75;;;9.10;;
74100;SDS011;62462;52.530;21.682;2022-10-31T10:28:13;16.48;;;10.32;;
74100;SDS011;62462;52.530;21.682;2022-10-31T10:30:43;14.00;;;8.55;;
74100;SDS011;62462;52.530;21.682;2022-10-31T10:33:24;14.48;;;9.45;;
74100;SDS011;62462;52.530;21.682;2022-10-31T10:36:24;15.88;;;9.65;;
74100;SDS011;62462;52.530;21.682;2022-10-31T10:39:03;13.25;;;9.40;;
74100;SDS011;62462;52.530;21.682;2022-10-31T10:41:33;13.68;;;8.60;;
74100;SDS011;62462;52.530;21.682;2022-10-31T10:43:59;17.75;;;9.63;;
74100;SDS011;62462;52.530;21.682;2022-10-31T10:46:27;14.38;;;8.90;;
74100;SDS011;62462;52.530;21.682;2022-10-31T10:49:26;13.05;;;7.75;;
74100;SDS011;62462;52.530;21.682;2022-10-31T10:51:59;12.75;;;7.72;;
74100;SDS011;62462;52.530;21.682;2022-10-31T11:00:00;13.00;;;7.97;;
74100;SDS011;62462;52.530;21.682;2022-10-31T11:02:43;12.05;;;7.85;;
74100;SDS011;62462;52.530;21.682;2022-10-31T11:05:13;12.15;;;7.45;;
74100;SDS011;62462;52.530;21.682;2022-10-31T11:07:47;16.33;;;8.85;;
74100;SDS011;62462;52.530;21.682;2022-10-31T11:10:14;16.92;;;10.35;;
74100;SDS011;62462;52.530;21.682;2022-10-31T11:12:41;17.92;;;10.88;;
74100;SDS011;62462;52.530;21.682;2022-10-31T11:15:18;20.00;;;11.23;;
74100;SDS011;62462;52.530;21.682;2022-10-31T11:17:51;18.38;;;10.48;;
74100;SDS011;62462;52.530;21.682;2022-10-31T11:22:45;15.68;;;9.07;;
74100;SDS011;62462;52.530;21.682;2022-10-31T11:25:21;16.92;;;9.05;;
74100;SDS011;62462;52.530;21.682;2022-10-31T11:27:58;15.85;;;8.80;;
74100;SDS011;62462;52.530;21.682;2022-10-31T11:30:46;13.48;;;8.50;;
74100;SDS011;62462;52.530;21.682;2022-10-31T11:33:21;17.80;;;9.18;;
74100;SDS011;62462;52.530;21.682;2022-10-31T11:35:54;15.32;;;9.95;;
74100;SDS011;62462;52.530;21.682;2022-10-31T11:38:21;15.30;;;9.60;;
74100;SDS011;62462;52.530;21.682;2022-10-31T11:41:09;12.68;;;8.75;;
74100;SDS011;62462;52.530;21.682;2022-10-31T11:46:57;17.98;;;11.23;;
74100;SDS011;62462;52.530;21.682;2022-10-31T11:49:40;14.82;;;8.90;;
74100;SDS011;62462;52.530;21.682;2022-10-31T11:52:08;13.63;;;8.90;;
74100;SDS011;62462;52.530;21.682;2022-10-31T11:57:22;13.48;;;8.88;;
74100;SDS011;62462;52.530;21.682;2022-10-31T11:59:50;10.18;;;7.65;;
74100;SDS011;62462;52.530;21.682;2022-10-31T12:02:21;15.85;;;7.75;;
74100;SDS011;62462;52.530;21.682;2022-10-31T12:05:07;12.25;;;8.27;;
74100;SDS011;62462;52.530;21.682;2022-10-31T12:07:43;12.38;;;7.63;;
74100;SDS011;62462;52.530;21.682;2022-10-31T12:10:09;9.45;;;6.95;;
74100;SDS011;62462;52.530;21.682;2022-10-31T12:15:44;13.27;;;8.80;;
74100;SDS011;62462;52.530;21.682;2022-10-31T12:18:37;16.05;;;8.50;;
74100;SDS011;62462;52.530;21.682;2022-10-31T12:37:21;12.93;;;8.13;;
74100;SDS011;62462;52.530;21.682;2022-10-31T12:43:15;12.63;;;8.48;;
74100;SDS011;62462;52.530;21.682;2022-10-31T12:45:54;17.92;;;8.32;;
74100;SDS011;62462;52.530;21.682;2022-10-31T12:48:29;14.68;;;8.90;;
74100;SDS011;62462;52.530;21.682;2022-10-31T12:53:55;16.83;;;8.32;;
74100;SDS011;62462;52.530;21.682;2022-10-31T13:01:40;11.30;;;7.13;;
74100;SDS011;62462;52.530;21.682;2022-10-31T13:06:47;12.25;;;7.82;;
74100;SDS011;62462;52.530;21.682;2022-10-31T13:09:38;14.02;;;9.25;;
74100;SDS011;62462;52.530;21.682;2022-10-31T13:12:07;17.45;;;9.25;;
74100;SDS011;62462;52.530;21.682;2022-10-31T13:14:51;15.75;;;8.52;;
74100;SDS011;62462;52.530;21.682;2022-10-31T13:17:34;11.93;;;8.40;;
74100;SDS011;62462;52.530;21.682;2022-10-31T13:23:16;13.45;;;7.97;;
74100;SDS011;62462;52.530;21.682;2022-10-31T13:25:49;12.27;;;7.22;;
74100;SDS011;62462;52.530;21.682;2022-10-31T13:30:45;11.70;;;8.00;;
74100;SDS011;62462;52.530;21.682;2022-10-31T13:33:15;13.20;;;7.20;;
74100;SDS011;62462;52.530;21.682;2022-10-31T13:46:41;9.48;;;6.70;;
74100;SDS011;62462;52.530;21.682;2022-10-31T13:49:36;13.40;;;7.47;;
74100;SDS011;62462;52.530;21.682;2022-10-31T13:54:39;11.88;;;7.82;;
74100;SDS011;62462;52.530;21.682;2022-10-31T13:57:07;13.98;;;7.88;;
74100;SDS011;62462;52.530;21.682;2022-10-31T13:59:51;13.20;;;9.07;;
74100;SDS011;62462;52.530;21.682;2022-10-31T14:02:27;13.75;;;9.50;;
74100;SDS011;62462;52.530;21.682;2022-10-31T14:05:03;23.52;;;15.07;;
74100;SDS011;62462;52.530;21.682;2022-10-31T14:07:29;16.38;;;10.95;;
74100;SDS011;62462;52.530;21.682;2022-10-31T14:10:02;16.48;;;11.52;;
74100;SDS011;62462;52.530;21.682;2022-10-31T14:12:45;19.02;;;13.35;;
74100;SDS011;62462;52.530;21.682;2022-10-31T14:17:55;15.18;;;9.70;;
74100;SDS011;62462;52.530;21.682;2022-10-31T14:26:06;18.13;;;11.20;;
74100;SDS011;62462;52.530;21.682;2022-10-31T14:28:55;19.33;;;10.85;;
74100;SDS011;62462;52.530;21.682;2022-10-31T14:31:29;19.95;;;11.80;;
74100;SDS011;62462;52.530;21.682;2022-10-31T14:34:18;21.55;;;12.07;;
74100;SDS011;62462;52.530;21.682;2022-10-31T14:37:10;19.50;;;11.55;;
74100;SDS011;62462;52.530;21.682;2022-10-31T14:42:43;23.08;;;11.07;;
74100;SDS011;62462;52.530;21.682;2022-10-31T14:53:26;23.00;;;13.68;;
74100;SDS011;62462;52.530;21.682;2022-10-31T14:56:01;23.08;;;13.73;;
74100;SDS011;62462;52.530;21.682;2022-10-31T15:01:02;23.85;;;15.15;;
74100;SDS011;62462;52.530;21.682;2022-10-31T15:06:04;22.75;;;14.73;;
74100;SDS011;62462;52.530;21.682;2022-10-31T15:08:39;24.63;;;15.07;;
74100;SDS011;62462;52.530;21.682;2022-10-31T15:11:17;29.15;;;18.05;;
74100;SDS011;62462;52.530;21.682;2022-10-31T15:13:48;25.33;;;16.65;;
74100;SDS011;62462;52.530;21.682;2022-10-31T15:16:21;27.60;;;16.88;;
74100;SDS011;62462;52.530;21.682;2022-10-31T15:18:57;26.92;;;16.77;;
74100;SDS011;62462;52.530;21.682;2022-10-31T15:21:27;25.67;;;15.77;;
74100;SDS011;62462;52.530;21.682;2022-10-31T15:23:54;27.08;;;16.00;;
74100;SDS011;62462;52.530;21.682;2022-10-31T15:26:32;32.35;;;18.05;;
74100;SDS011;62462;52.530;21.682;2022-10-31T15:29:11;33.22;;;19.13;;
74100;SDS011;62462;52.530;21.682;2022-10-31T15:31:38;30.17;;;18.23;;
74100;SDS011;62462;52.530;21.682;2022-10-31T15:34:05;29.58;;;18.20;;
74100;SDS011;62462;52.530;21.682;2022-10-31T15:36:47;28.55;;;17.77;;
74100;SDS011;62462;52.530;21.682;2022-10-31T15:39:14;31.23;;;18.73;;
74100;SDS011;62462;52.530;21.682;2022-10-31T15:41:50;33.88;;;20.15;;
74100;SDS011;62462;52.530;21.682;2022-10-31T15:44:26;33.35;;;17.75;;
74100;SDS011;62462;52.530;21.682;2022-10-31T15:51:57;33.53;;;18.98;;
74100;SDS011;62462;52.530;21.682;2022-10-31T15:54:48;36.88;;;20.05;;
74100;SDS011;62462;52.530;21.682;2022-10-31T15:57:16;31.30;;;19.50;;
74100;SDS011;62462;52.530;21.682;2022-10-31T15:59:45;35.08;;;19.02;;
74100;SDS011;62462;52.530;21.682;2022-10-31T16:02:18;58.20;;;41.50;;
74100;SDS011;62462;52.530;21.682;2022-10-31T16:04:48;39.47;;;24.85;;
74100;SDS011;62462;52.530;21.682;2022-10-31T16:07:17;38.53;;;23.05;;
74100;SDS011;62462;52.530;21.682;2022-10-31T16:09:54;48.58;;;29.02;;
74100;SDS011;62462;52.530;21.682;2022-10-31T16:12:22;54.53;;;29.80;;
74100;SDS011;62462;52.530;21.682;2022-10-31T16:14:50;46.50;;;27.80;;
74100;SDS011;62462;52.530;21.682;2022-10-31T16:17:18;43.05;;;25.13;;
74100;SDS011;62462;52.530;21.682;2022-10-31T16:19:51;42.55;;;24.55;;
74100;SDS011;62462;52.530;21.682;2022-10-31T16:22:30;47.85;;;27.65;;
74100;SDS011;62462;52.530;21.682;2022-10-31T16:25:01;60.38;;;30.67;;
74100;SDS011;62462;52.530;21.682;2022-10-31T16:27:31;199.80;;;76.88;;
74100;SDS011;62462;52.530;21.682;2022-10-31T16:29:59;950.20;;;389.60;;
74100;SDS011;62462;52.530;21.682;2022-10-31T16:35:17;984.72;;;298.50;;
74100;SDS011;62462;52.530;21.682;2022-10-31T16:38:04;380.77;;;94.18;;
74100;SDS011;62462;52.530;21.682;2022-10-31T16:40:30;588.00;;;197.52;;
74100;SDS011;62462;52.530;21.682;2022-10-31T16:42:58;478.75;;;140.52;;
74100;SDS011;62462;52.530;21.682;2022-10-31T16:45:26;545.85;;;179.90;;
74100;SDS011;62462;52.530;21.682;2022-10-31T16:47:54;409.65;;;121.05;;
74100;SDS011;62462;52.530;21.682;2022-10-31T16:50:30;122.45;;;53.95;;
74100;SDS011;62462;52.530;21.682;2022-10-31T16:52:56;60.25;;;33.47;;
74100;SDS011;62462;52.530;21.682;2022-10-31T16:55:22;39.83;;;21.85;;
74100;SDS011;62462;52.530;21.682;2022-10-31T16:57:50;47.97;;;24.85;;
74100;SDS011;62462;52.530;21.682;2022-10-31T17:00:23;79.75;;;35.60;;
74100;SDS011;62462;52.530;21.682;2022-10-31T17:05:19;77.03;;;38.80;;